sensor_id;sensor_type;location;lat;lon;timestamp;pressure;altitude;pressure_sealevel;temperature;humidity
62978;BME280;49073;42.352;23.808;2023-06-22T00:00:31;95099.13;;;18.01;81.79
62978;BME280;49073;42.352;23.808;2023-06-22T00:03:32;95104.91;;;17.82;82.86
62978;BME280;49073;42.352;23.808;2023-06-22T00:06:32;95108.03;;;17.80;83.30
62978;BME280;49073;42.352;23.808;2023-06-22T00:09:33;95108.00;;;17.84;83.17
62978;BME280;49073;42.352;23.808;2023-06-22T00:12:33;95111.03;;;17.93;82.90
62978;BME280;49073;42.352;23.808;2023-06-22T00:15:34;95117.22;;;17.97;82.36
62978;BME280;49073;42.352;23.808;2023-06-22T00:18:36;95115.69;;;17.93;83.05
62978;BME280;49073;42.352;23.808;2023-06-22T00:21:36;95119.91;;;17.94;82.79
62978;BME280;49073;42.352;23.808;2023-06-22T00:24:38;95113.78;;;17.82;83.42
62978;BME280;49073;42.352;23.808;2023-06-22T00:27:38;95120.75;;;17.69;84.73
62978;BME280;49073;42.352;23.808;2023-06-22T00:30:40;95118.41;;;17.85;83.63
62978;BME280;49073;42.352;23.808;2023-06-22T00:33:40;95118.81;;;17.80;83.74
62978;BME280;49073;42.352;23.808;2023-06-22T00:36:40;95112.63;;;17.83;83.32
62978;BME280;49073;42.352;23.808;2023-06-22T00:39:44;95103.44;;;17.66;84.40
62978;BME280;49073;42.352;23.808;2023-06-22T00:42:44;95113.47;;;17.55;84.83
62978;BME280;49073;42.352;23.808;2023-06-22T00:45:45;95110.75;;;17.62;84.68
62978;BME280;49073;42.352;23.808;2023-06-22T00:48:45;95115.75;;;17.56;85.64
62978;BME280;49073;42.352;23.808;2023-06-22T00:51:46;95114.97;;;17.59;84.48
62978;BME280;49073;42.352;23.808;2023-06-22T00:54:48;95113.84;;;17.68;84.50
62978;BME280;49073;42.352;23.808;2023-06-22T00:57:49;95119.97;;;17.72;83.39
62978;BME280;49073;42.352;23.808;2023-06-22T01:00:51;95109.97;;;17.72;83.22
62978;BME280;49073;42.352;23.808;2023-06-22T01:03:51;95116.91;;;17.55;84.28
62978;BME280;49073;42.352;23.808;2023-06-22T01:10:43;95110.34;;;17.67;83.99
62978;BME280;49073;42.352;23.808;2023-06-22T01:14:06;95114.97;;;17.59;83.45
62978;BME280;49073;42.352;23.808;2023-06-22T01:17:11;95114.22;;;17.48;83.44
62978;BME280;49073;42.352;23.808;2023-06-22T01:20:15;95110.78;;;17.37;84.58
62978;BME280;49073;42.352;23.808;2023-06-22T01:23:35;95117.72;;;17.38;85.17
62978;BME280;49073;42.352;23.808;2023-06-22T01:26:46;95125.78;;;17.38;84.10
62978;BME280;49073;42.352;23.808;2023-06-22T01:29:56;95114.63;;;17.47;84.30
62978;BME280;49073;42.352;23.808;2023-06-22T01:33:02;95106.56;;;17.47;84.87
62978;BME280;49073;42.352;23.808;2023-06-22T01:36:06;95105.38;;;17.33;85.30
62978;BME280;49073;42.352;23.808;2023-06-22T01:39:08;95105.78;;;17.13;86.63
62978;BME280;49073;42.352;23.808;2023-06-22T01:42:10;95102.69;;;17.08;87.69
62978;BME280;49073;42.352;23.808;2023-06-22T01:45:12;95109.25;;;17.07;88.52
62978;BME280;49073;42.352;23.808;2023-06-22T01:48:12;95101.56;;;16.98;88.84
62978;BME280;49073;42.352;23.808;2023-06-22T01:51:13;95106.97;;;17.09;88.37
62978;BME280;49073;42.352;23.808;2023-06-22T01:54:14;95105.78;;;17.21;86.81
62978;BME280;49073;42.352;23.808;2023-06-22T01:57:14;95101.16;;;17.25;86.38
62978;BME280;49073;42.352;23.808;2023-06-22T02:00:20;95105.41;;;17.22;86.53
62978;BME280;49073;42.352;23.808;2023-06-22T02:03:28;95099.25;;;17.18;86.68
62978;BME280;49073;42.352;23.808;2023-06-22T02:06:34;95112.72;;;17.22;86.38
62978;BME280;49073;42.352;23.808;2023-06-22T02:09:37;95110.41;;;17.24;85.77
62978;BME280;49073;42.352;23.808;2023-06-22T02:12:39;95105.41;;;17.22;86.05
62978;BME280;49073;42.352;23.808;2023-06-22T02:15:42;95108.84;;;17.30;84.75
62978;BME280;49073;42.352;23.808;2023-06-22T02:18:46;95104.63;;;17.29;84.38
62978;BME280;49073;42.352;23.808;2023-06-22T02:21:48;95116.19;;;17.29;84.50
62978;BME280;49073;42.352;23.808;2023-06-22T02:24:48;95113.47;;;17.11;85.78
62978;BME280;49073;42.352;23.808;2023-06-22T02:27:49;95115.78;;;17.02;86.59
62978;BME280;49073;42.352;23.808;2023-06-22T02:30:49;95116.19;;;17.11;86.79
62978;BME280;49073;42.352;23.808;2023-06-22T02:33:50;95125.03;;;17.12;87.45
62978;BME280;49073;42.352;23.808;2023-06-22T02:36:50;95111.19;;;17.10;87.35
62978;BME280;49073;42.352;23.808;2023-06-22T02:39:52;95119.22;;;16.95;88.45
62978;BME280;49073;42.352;23.808;2023-06-22T02:42:52;95119.22;;;16.92;88.93
62978;BME280;49073;42.352;23.808;2023-06-22T02:45:53;95120.78;;;17.22;86.81
62978;BME280;49073;42.352;23.808;2023-06-22T02:48:54;95116.56;;;17.32;85.38
62978;BME280;49073;42.352;23.808;2023-06-22T02:51:54;95119.28;;;17.10;86.47
62978;BME280;49073;42.352;23.808;2023-06-22T02:54:55;95108.88;;;17.08;86.47
62978;BME280;49073;42.352;23.808;2023-06-22T02:57:56;95106.56;;;17.07;85.82
62978;BME280;49073;42.352;23.808;2023-06-22T03:00:57;95119.25;;;17.06;86.71
62978;BME280;49073;42.352;23.808;2023-06-22T03:03:58;95119.28;;;17.10;85.56
62978;BME280;49073;42.352;23.808;2023-06-22T03:06:58;95115.41;;;17.04;85.86
62978;BME280;49073;42.352;23.808;2023-06-22T03:10:01;95118.47;;;16.95;87.05
62978;BME280;49073;42.352;23.808;2023-06-22T03:13:01;95112.72;;;17.07;86.70
62978;BME280;49073;42.352;23.808;2023-06-22T03:16:02;95115.03;;;17.05;86.36
62978;BME280;49073;42.352;23.808;2023-06-22T03:19:02;95116.56;;;17.02;86.71
62978;BME280;49073;42.352;23.808;2023-06-22T03:22:03;95118.84;;;17.08;86.87
62978;BME280;49073;42.352;23.808;2023-06-22T03:25:04;95122.72;;;17.10;87.25
62978;BME280;49073;42.352;23.808;2023-06-22T03:28:10;95127.72;;;17.08;87.56
62978;BME280;49073;42.352;23.808;2023-06-22T03:31:11;95139.66;;;17.18;87.73
62978;BME280;49073;42.352;23.808;2023-06-22T03:34:11;95136.97;;;17.25;87.98
62978;BME280;49073;42.352;23.808;2023-06-22T03:37:15;95143.09;;;17.19;88.85
62978;BME280;49073;42.352;23.808;2023-06-22T03:40:15;95136.56;;;17.20;89.42
62978;BME280;49073;42.352;23.808;2023-06-22T03:43:16;95136.19;;;17.32;89.32
62978;BME280;49073;42.352;23.808;2023-06-22T03:46:16;95141.56;;;17.43;89.44
62978;BME280;49073;42.352;23.808;2023-06-22T03:49:17;95136.56;;;17.23;90.10
62978;BME280;49073;42.352;23.808;2023-06-22T03:52:17;95140.03;;;17.35;89.90
62978;BME280;49073;42.352;23.808;2023-06-22T03:55:19;95145.81;;;17.44;90.01
62978;BME280;49073;42.352;23.808;2023-06-22T03:58:22;95145.81;;;17.44;90.46
62978;BME280;49073;42.352;23.808;2023-06-22T04:01:23;95148.88;;;17.57;90.53
62978;BME280;49073;42.352;23.808;2023-06-22T04:04:23;95151.16;;;17.66;90.72
62978;BME280;49073;42.352;23.808;2023-06-22T04:07:24;95143.44;;;17.89;90.89
62978;BME280;49073;42.352;23.808;2023-06-22T04:10:24;95152.66;;;17.96;90.88
62978;BME280;49073;42.352;23.808;2023-06-22T04:13:25;95149.19;;;17.99;91.33
62978;BME280;49073;42.352;23.808;2023-06-22T04:16:26;95149.59;;;18.01;91.25
62978;BME280;49073;42.352;23.808;2023-06-22T04:19:26;95149.19;;;18.10;91.66
62978;BME280;49073;42.352;23.808;2023-06-22T04:22:27;95156.88;;;18.11;91.06
62978;BME280;49073;42.352;23.808;2023-06-22T04:25:27;95150.69;;;18.14;87.87
62978;BME280;49073;42.352;23.808;2023-06-22T04:28:28;95161.06;;;18.23;87.20
62978;BME280;49073;42.352;23.808;2023-06-22T04:31:29;95165.25;;;18.42;86.29
62978;BME280;49073;42.352;23.808;2023-06-22T04:34:32;95162.56;;;18.42;86.29
62978;BME280;49073;42.352;23.808;2023-06-22T04:37:33;95155.97;;;18.51;86.37
62978;BME280;49073;42.352;23.808;2023-06-22T04:40:34;95159.00;;;18.60;87.61
62978;BME280;49073;42.352;23.808;2023-06-22T04:43:34;95162.81;;;18.66;88.10
62978;BME280;49073;42.352;23.808;2023-06-22T04:46:35;95150.06;;;18.70;88.80
62978;BME280;49073;42.352;23.808;2023-06-22T04:49:38;95154.63;;;18.81;89.03
62978;BME280;49073;42.352;23.808;2023-06-22T04:52:40;95155.03;;;18.79;90.75
62978;BME280;49073;42.352;23.808;2023-06-22T04:55:40;95151.94;;;18.81;92.69
62978;BME280;49073;42.352;23.808;2023-06-22T04:58:41;95148.78;;;18.93;92.50
62978;BME280;49073;42.352;23.808;2023-06-22T05:01:42;95139.16;;;18.88;93.31
62978;BME280;49073;42.352;23.808;2023-06-22T05:04:42;95145.66;;;19.02;93.58
62978;BME280;49073;42.352;23.808;2023-06-22T05:07:44;95149.09;;;19.10;90.81
62978;BME280;49073;42.352;23.808;2023-06-22T05:10:48;95150.56;;;19.14;89.65
62978;BME280;49073;42.352;23.808;2023-06-22T05:13:48;95159.84;;;19.13;90.00
62978;BME280;49073;42.352;23.808;2023-06-22T05:16:49;95154.06;;;19.15;90.41
62978;BME280;49073;42.352;23.808;2023-06-22T05:19:52;95149.47;;;19.12;89.62
62978;BME280;49073;42.352;23.808;2023-06-22T05:22:52;95153.31;;;19.11;88.82
62978;BME280;49073;42.352;23.808;2023-06-22T05:25:53;95153.69;;;19.16;89.46
62978;BME280;49073;42.352;23.808;2023-06-22T05:28:55;95156.75;;;19.18;89.65
62978;BME280;49073;42.352;23.808;2023-06-22T05:31:55;95155.53;;;19.27;88.59
62978;BME280;49073;42.352;23.808;2023-06-22T05:34:56;95159.28;;;19.40;88.25
62978;BME280;49073;42.352;23.808;2023-06-22T05:37:56;95155.41;;;19.41;88.29
62978;BME280;49073;42.352;23.808;2023-06-22T05:40:57;95158.81;;;19.49;88.02
62978;BME280;49073;42.352;23.808;2023-06-22T05:43:58;95152.13;;;19.61;87.63
62978;BME280;49073;42.352;23.808;2023-06-22T05:46:58;95150.88;;;19.73;88.48
62978;BME280;49073;42.352;23.808;2023-06-22T05:49:59;95156.94;;;19.84;88.58
62978;BME280;49073;42.352;23.808;2023-06-22T05:52:59;95156.91;;;19.88;88.05
62978;BME280;49073;42.352;23.808;2023-06-22T05:56:00;95161.13;;;19.96;87.76
62978;BME280;49073;42.352;23.808;2023-06-22T05:59:01;95159.13;;;20.04;86.64
62978;BME280;49073;42.352;23.808;2023-06-22T06:02:01;95161.38;;;20.09;85.57
62978;BME280;49073;42.352;23.808;2023-06-22T06:05:03;95161.47;;;20.33;87.38
62978;BME280;49073;42.352;23.808;2023-06-22T06:08:05;95159.91;;;20.35;87.75
62978;BME280;49073;42.352;23.808;2023-06-22T06:11:06;95162.44;;;20.50;86.49
62978;BME280;49073;42.352;23.808;2023-06-22T06:14:07;95164.63;;;20.59;85.51
62978;BME280;49073;42.352;23.808;2023-06-22T06:17:09;95156.88;;;20.61;84.88
62978;BME280;49073;42.352;23.808;2023-06-22T06:20:09;95163.28;;;20.74;86.11
62978;BME280;49073;42.352;23.808;2023-06-22T06:23:10;95163.13;;;20.89;84.61
62978;BME280;49073;42.352;23.808;2023-06-22T06:26:11;95161.03;;;21.00;84.06
62978;BME280;49073;42.352;23.808;2023-06-22T06:29:12;95162.19;;;20.99;80.51
62978;BME280;49073;42.352;23.808;2023-06-22T06:32:12;95162.34;;;21.16;80.94
62978;BME280;49073;42.352;23.808;2023-06-22T06:35:14;95173.44;;;21.25;80.50
62978;BME280;49073;42.352;23.808;2023-06-22T06:38:16;95162.03;;;21.38;78.99
62978;BME280;49073;42.352;23.808;2023-06-22T06:41:19;95170.50;;;21.40;79.84
62978;BME280;49073;42.352;23.808;2023-06-22T06:47:20;95165.16;;;21.60;81.70
62978;BME280;49073;42.352;23.808;2023-06-22T06:50:21;95171.63;;;21.90;81.61
62978;BME280;49073;42.352;23.808;2023-06-22T06:53:22;95156.91;;;22.11;80.49
62978;BME280;49073;42.352;23.808;2023-06-22T06:56:22;95154.75;;;22.22;81.17
62978;BME280;49073;42.352;23.808;2023-06-22T06:59:23;95165.81;;;22.32;81.81
62978;BME280;49073;42.352;23.808;2023-06-22T07:02:24;95157.44;;;22.46;80.04
62978;BME280;49073;42.352;23.808;2023-06-22T07:05:24;95165.09;;;22.51;76.90
62978;BME280;49073;42.352;23.808;2023-06-22T07:08:25;95156.13;;;22.71;76.20
62978;BME280;49073;42.352;23.808;2023-06-22T07:11:25;95160.69;;;22.94;79.26
62978;BME280;49073;42.352;23.808;2023-06-22T07:14:26;95161.03;;;22.96;78.83
62978;BME280;49073;42.352;23.808;2023-06-22T07:17:27;95159.09;;;23.14;77.99
62978;BME280;49073;42.352;23.808;2023-06-22T07:20:27;95151.75;;;23.31;80.67
62978;BME280;49073;42.352;23.808;2023-06-22T07:23:28;95151.13;;;23.39;78.84
62978;BME280;49073;42.352;23.808;2023-06-22T07:26:28;95158.03;;;23.44;75.74
62978;BME280;49073;42.352;23.808;2023-06-22T07:29:29;95152.91;;;23.46;75.07
62978;BME280;49073;42.352;23.808;2023-06-22T07:32:33;95154.44;;;23.47;75.32
62978;BME280;49073;42.352;23.808;2023-06-22T07:35:34;95154.94;;;23.59;74.66
62978;BME280;49073;42.352;23.808;2023-06-22T07:38:34;95159.44;;;23.65;74.08
62978;BME280;49073;42.352;23.808;2023-06-22T07:41:39;95152.69;;;23.87;75.82
62978;BME280;49073;42.352;23.808;2023-06-22T07:44:41;95155.56;;;23.96;67.94
62978;BME280;49073;42.352;23.808;2023-06-22T07:47:41;95146.06;;;23.88;70.49
62978;BME280;49073;42.352;23.808;2023-06-22T07:50:42;95146.84;;;24.18;68.25
62978;BME280;49073;42.352;23.808;2023-06-22T07:53:44;95148.63;;;24.37;66.84
62978;BME280;49073;42.352;23.808;2023-06-22T07:56:46;95147.88;;;24.37;65.85
62978;BME280;49073;42.352;23.808;2023-06-22T07:59:47;95148.34;;;24.61;60.66
62978;BME280;49073;42.352;23.808;2023-06-22T08:02:47;95142.25;;;24.57;62.90
62978;BME280;49073;42.352;23.808;2023-06-22T08:05:48;95139.81;;;24.46;62.21
62978;BME280;49073;42.352;23.808;2023-06-22T08:08:49;95144.53;;;24.46;60.46
62978;BME280;49073;42.352;23.808;2023-06-22T08:11:50;95138.88;;;24.66;60.07
62978;BME280;49073;42.352;23.808;2023-06-22T08:14:50;95144.22;;;24.69;57.82
62978;BME280;49073;42.352;23.808;2023-06-22T08:17:51;95138.16;;;24.91;58.60
62978;BME280;49073;42.352;23.808;2023-06-22T08:20:55;95137.06;;;25.15;58.83
62978;BME280;49073;42.352;23.808;2023-06-22T08:23:55;95145.78;;;25.35;55.49
62978;BME280;49073;42.352;23.808;2023-06-22T08:26:56;95139.56;;;25.48;55.50
62978;BME280;49073;42.352;23.808;2023-06-22T08:29:56;95139.31;;;25.42;54.63
62978;BME280;49073;42.352;23.808;2023-06-22T08:32:59;95147.94;;;25.53;54.57
62978;BME280;49073;42.352;23.808;2023-06-22T08:35:59;95137.97;;;25.60;50.03
62978;BME280;49073;42.352;23.808;2023-06-22T08:39:00;95136.34;;;25.62;53.00
62978;BME280;49073;42.352;23.808;2023-06-22T08:42:03;95141.53;;;25.82;53.39
62978;BME280;49073;42.352;23.808;2023-06-22T08:45:04;95137.78;;;25.89;53.60
62978;BME280;49073;42.352;23.808;2023-06-22T08:48:05;95137.56;;;25.96;53.45
62978;BME280;49073;42.352;23.808;2023-06-22T08:51:05;95134.25;;;26.02;55.39
62978;BME280;49073;42.352;23.808;2023-06-22T08:54:06;95135.06;;;26.11;54.01
62978;BME280;49073;42.352;23.808;2023-06-22T08:57:06;95134.09;;;26.18;54.12
62978;BME280;49073;42.352;23.808;2023-06-22T09:00:08;95132.88;;;26.19;52.00
62978;BME280;49073;42.352;23.808;2023-06-22T09:03:16;95129.97;;;26.45;54.70
62978;BME280;49073;42.352;23.808;2023-06-22T09:06:17;95120.56;;;26.46;45.79
62978;BME280;49073;42.352;23.808;2023-06-22T09:09:18;95122.22;;;26.66;51.06
62978;BME280;49073;42.352;23.808;2023-06-22T09:12:20;95120.25;;;26.76;47.63
62978;BME280;49073;42.352;23.808;2023-06-22T09:15:22;95127.22;;;26.99;47.98
62978;BME280;49073;42.352;23.808;2023-06-22T09:18:23;95122.53;;;26.99;47.17
62978;BME280;49073;42.352;23.808;2023-06-22T09:21:24;95125.16;;;27.12;48.75
62978;BME280;49073;42.352;23.808;2023-06-22T09:24:24;95121.22;;;27.23;46.88
62978;BME280;49073;42.352;23.808;2023-06-22T09:27:25;95127.94;;;27.31;46.30
62978;BME280;49073;42.352;23.808;2023-06-22T09:30:26;95120.78;;;27.34;45.77
62978;BME280;49073;42.352;23.808;2023-06-22T09:33:27;95123.09;;;27.44;43.90
62978;BME280;49073;42.352;23.808;2023-06-22T09:36:27;95125.88;;;27.63;45.96
62978;BME280;49073;42.352;23.808;2023-06-22T09:39:28;95133.78;;;27.61;47.48
62978;BME280;49073;42.352;23.808;2023-06-22T09:42:33;95136.69;;;27.85;46.32
62978;BME280;49073;42.352;23.808;2023-06-22T09:45:34;95132.13;;;28.01;45.12
62978;BME280;49073;42.352;23.808;2023-06-22T09:48:36;95130.63;;;28.00;45.78
62978;BME280;49073;42.352;23.808;2023-06-22T09:51:36;95137.91;;;28.12;47.85
62978;BME280;49073;42.352;23.808;2023-06-22T09:54:37;95131.97;;;28.05;46.57
62978;BME280;49073;42.352;23.808;2023-06-22T09:57:37;95130.75;;;27.87;45.41
62978;BME280;49073;42.352;23.808;2023-06-22T10:00:38;95129.22;;;27.67;46.86
62978;BME280;49073;42.352;23.808;2023-06-22T10:03:38;95119.03;;;27.77;47.90
62978;BME280;49073;42.352;23.808;2023-06-22T10:06:39;95119.22;;;27.73;45.76
62978;BME280;49073;42.352;23.808;2023-06-22T10:09:40;95126.50;;;28.05;45.26
62978;BME280;49073;42.352;23.808;2023-06-22T10:12:46;95126.50;;;28.23;45.83
62978;BME280;49073;42.352;23.808;2023-06-22T10:15:47;95124.03;;;28.44;44.06
62978;BME280;49073;42.352;23.808;2023-06-22T10:18:51;95116.22;;;28.61;44.54
62978;BME280;49073;42.352;23.808;2023-06-22T10:21:52;95109.19;;;28.79;43.88
62978;BME280;49073;42.352;23.808;2023-06-22T10:24:52;95101.69;;;28.79;42.52
62978;BME280;49073;42.352;23.808;2023-06-22T10:27:54;95111.59;;;28.86;43.75
62978;BME280;49073;42.352;23.808;2023-06-22T10:30:55;95101.63;;;28.98;43.29
62978;BME280;49073;42.352;23.808;2023-06-22T10:33:55;95102.56;;;28.85;40.57
62978;BME280;49073;42.352;23.808;2023-06-22T10:36:56;95102.38;;;28.98;41.81
62978;BME280;49073;42.352;23.808;2023-06-22T10:39:57;95101.81;;;29.18;40.56
62978;BME280;49073;42.352;23.808;2023-06-22T10:42:57;95095.88;;;28.77;42.25
62978;BME280;49073;42.352;23.808;2023-06-22T10:45:58;95094.91;;;28.99;41.96
62978;BME280;49073;42.352;23.808;2023-06-22T10:48:59;95099.13;;;29.09;41.20
62978;BME280;49073;42.352;23.808;2023-06-22T10:52:00;95089.66;;;29.10;40.48
62978;BME280;49073;42.352;23.808;2023-06-22T10:55:00;95095.91;;;29.35;43.04
62978;BME280;49073;42.352;23.808;2023-06-22T10:58:01;95091.91;;;29.45;42.87
62978;BME280;49073;42.352;23.808;2023-06-22T11:01:02;95098.75;;;29.50;43.84
62978;BME280;49073;42.352;23.808;2023-06-22T11:04:03;95099.44;;;29.60;42.04
62978;BME280;49073;42.352;23.808;2023-06-22T11:07:04;95093.59;;;29.67;38.29
62978;BME280;49073;42.352;23.808;2023-06-22T11:10:05;95097.13;;;29.83;40.07
62978;BME280;49073;42.352;23.808;2023-06-22T11:13:06;95092.47;;;29.74;38.38
62978;BME280;49073;42.352;23.808;2023-06-22T11:16:10;95092.22;;;29.48;41.11
62978;BME280;49073;42.352;23.808;2023-06-22T11:19:10;95096.56;;;29.30;43.18
62978;BME280;49073;42.352;23.808;2023-06-22T11:22:11;95095.69;;;29.24;44.08
62978;BME280;49073;42.352;23.808;2023-06-22T11:25:11;95105.34;;;29.43;43.72
62978;BME280;49073;42.352;23.808;2023-06-22T11:28:12;95096.34;;;29.67;41.37
62978;BME280;49073;42.352;23.808;2023-06-22T11:31:13;95090.78;;;29.76;40.27
62978;BME280;49073;42.352;23.808;2023-06-22T11:34:14;95089.53;;;29.78;41.39
62978;BME280;49073;42.352;23.808;2023-06-22T11:37:17;95082.56;;;29.52;41.86
62978;BME280;49073;42.352;23.808;2023-06-22T11:40:17;95083.22;;;29.47;42.16
62978;BME280;49073;42.352;23.808;2023-06-22T11:43:19;95082.75;;;29.49;41.04
62978;BME280;49073;42.352;23.808;2023-06-22T11:46:20;95081.03;;;29.90;40.34
62978;BME280;49073;42.352;23.808;2023-06-22T11:49:21;95078.03;;;30.03;40.75
62978;BME280;49073;42.352;23.808;2023-06-22T11:52:22;95074.78;;;29.90;40.67
62978;BME280;49073;42.352;23.808;2023-06-22T11:55:24;95074.41;;;29.97;41.20
62978;BME280;49073;42.352;23.808;2023-06-22T11:58:24;95074.91;;;30.26;40.72
62978;BME280;49073;42.352;23.808;2023-06-22T12:01:25;95078.81;;;30.19;40.39
62978;BME280;49073;42.352;23.808;2023-06-22T12:04:25;95082.50;;;30.31;41.87
62978;BME280;49073;42.352;23.808;2023-06-22T12:07:27;95065.72;;;30.44;40.92
62978;BME280;49073;42.352;23.808;2023-06-22T12:10:31;95073.78;;;30.32;39.64
62978;BME280;49073;42.352;23.808;2023-06-22T12:13:34;95065.88;;;29.95;39.69
62978;BME280;49073;42.352;23.808;2023-06-22T12:16:37;95062.31;;;29.50;40.97
62978;BME280;49073;42.352;23.808;2023-06-22T12:19:39;95056.25;;;29.60;41.38
62978;BME280;49073;42.352;23.808;2023-06-22T12:22:40;95061.13;;;29.81;40.80
62978;BME280;49073;42.352;23.808;2023-06-22T12:25:41;95056.31;;;29.90;41.19
62978;BME280;49073;42.352;23.808;2023-06-22T12:28:42;95045.31;;;29.90;42.43
62978;BME280;49073;42.352;23.808;2023-06-22T12:31:42;95044.19;;;29.82;40.79
62978;BME280;49073;42.352;23.808;2023-06-22T12:34:44;95044.88;;;30.22;41.72
62978;BME280;49073;42.352;23.808;2023-06-22T12:37:45;95045.44;;;30.26;40.67
62978;BME280;49073;42.352;23.808;2023-06-22T12:40:45;95054.81;;;30.04;41.10
62978;BME280;49073;42.352;23.808;2023-06-22T12:43:47;95050.13;;;29.81;39.39
62978;BME280;49073;42.352;23.808;2023-06-22T12:46:48;95054.28;;;29.61;41.64
62978;BME280;49073;42.352;23.808;2023-06-22T12:49:48;95040.91;;;29.54;44.25
62978;BME280;49073;42.352;23.808;2023-06-22T12:52:49;95046.28;;;29.24;43.10
62978;BME280;49073;42.352;23.808;2023-06-22T12:55:49;95041.06;;;29.26;44.98
62978;BME280;49073;42.352;23.808;2023-06-22T12:58:50;95044.31;;;29.24;45.28
62978;BME280;49073;42.352;23.808;2023-06-22T13:01:50;95029.31;;;29.10;45.79
62978;BME280;49073;42.352;23.808;2023-06-22T13:04:51;95035.94;;;28.94;46.61
62978;BME280;49073;42.352;23.808;2023-06-22T13:07:51;95033.72;;;28.83;45.27
62978;BME280;49073;42.352;23.808;2023-06-22T13:10:52;95042.56;;;28.78;46.28
62978;BME280;49073;42.352;23.808;2023-06-22T13:13:53;95049.19;;;28.62;47.75
62978;BME280;49073;42.352;23.808;2023-06-22T13:16:53;95065.06;;;28.49;47.46
62978;BME280;49073;42.352;23.808;2023-06-22T13:19:55;95057.91;;;28.51;48.40
62978;BME280;49073;42.352;23.808;2023-06-22T13:22:56;95066.44;;;28.53;50.60
62978;BME280;49073;42.352;23.808;2023-06-22T13:25:57;95070.41;;;28.52;51.74
62978;BME280;49073;42.352;23.808;2023-06-22T13:28:58;95062.47;;;28.54;52.23
62978;BME280;49073;42.352;23.808;2023-06-22T13:31:59;95062.94;;;28.43;50.35
62978;BME280;49073;42.352;23.808;2023-06-22T13:34:59;95072.44;;;28.33;50.67
62978;BME280;49073;42.352;23.808;2023-06-22T13:38:00;95063.47;;;28.23;50.51
62978;BME280;49073;42.352;23.808;2023-06-22T13:41:01;95068.53;;;28.15;51.79
62978;BME280;49073;42.352;23.808;2023-06-22T13:44:01;95065.00;;;28.15;55.31
62978;BME280;49073;42.352;23.808;2023-06-22T13:47:02;95065.00;;;28.06;56.35
62978;BME280;49073;42.352;23.808;2023-06-22T13:50:03;95063.94;;;28.03;58.27
62978;BME280;49073;42.352;23.808;2023-06-22T13:53:04;95074.75;;;28.07;58.29
62978;BME280;49073;42.352;23.808;2023-06-22T13:56:04;95068.50;;;27.87;59.48
62978;BME280;49073;42.352;23.808;2023-06-22T13:59:05;95073.56;;;27.80;56.80
62978;BME280;49073;42.352;23.808;2023-06-22T14:02:07;95077.03;;;27.80;57.03
62978;BME280;49073;42.352;23.808;2023-06-22T14:05:08;95070.84;;;27.70;57.09
62978;BME280;49073;42.352;23.808;2023-06-22T14:08:08;95064.88;;;27.63;57.80
62978;BME280;49073;42.352;23.808;2023-06-22T14:11:09;95068.84;;;27.62;58.65
62978;BME280;49073;42.352;23.808;2023-06-22T14:14:10;95067.94;;;27.55;58.62
62978;BME280;49073;42.352;23.808;2023-06-22T14:17:11;95063.50;;;27.58;57.72
62978;BME280;49073;42.352;23.808;2023-06-22T14:20:12;95066.41;;;27.64;59.63
62978;BME280;49073;42.352;23.808;2023-06-22T14:23:12;95064.69;;;27.38;58.98
62978;BME280;49073;42.352;23.808;2023-06-22T14:26:14;95068.75;;;27.15;58.95
62978;BME280;49073;42.352;23.808;2023-06-22T14:29:18;95052.09;;;26.81;59.28
62978;BME280;49073;42.352;23.808;2023-06-22T14:32:18;95062.13;;;26.43;59.56
62978;BME280;49073;42.352;23.808;2023-06-22T14:35:19;95059.78;;;26.33;60.83
62978;BME280;49073;42.352;23.808;2023-06-22T14:38:21;95058.03;;;26.17;61.53
62978;BME280;49073;42.352;23.808;2023-06-22T14:41:21;95068.63;;;26.14;63.36
62978;BME280;49073;42.352;23.808;2023-06-22T14:44:22;95068.00;;;25.88;62.71
62978;BME280;49073;42.352;23.808;2023-06-22T14:47:22;95069.91;;;25.78;62.42
62978;BME280;49073;42.352;23.808;2023-06-22T14:50:23;95065.34;;;25.75;62.83
62978;BME280;49073;42.352;23.808;2023-06-22T14:53:23;95072.94;;;25.80;62.69
62978;BME280;49073;42.352;23.808;2023-06-22T14:56:24;95061.09;;;25.74;61.50
62978;BME280;49073;42.352;23.808;2023-06-22T14:59:24;95067.28;;;25.75;61.57
62978;BME280;49073;42.352;23.808;2023-06-22T15:02:25;95070.06;;;25.62;60.95
62978;BME280;49073;42.352;23.808;2023-06-22T15:05:25;95073.50;;;25.53;60.02
62978;BME280;49073;42.352;23.808;2023-06-22T15:08:27;95066.94;;;25.50;60.01
62978;BME280;49073;42.352;23.808;2023-06-22T15:11:27;95068.94;;;25.24;60.14
62978;BME280;49073;42.352;23.808;2023-06-22T15:14:28;95061.53;;;25.24;60.71
62978;BME280;49073;42.352;23.808;2023-06-22T15:17:30;95062.84;;;25.20;60.55
62978;BME280;49073;42.352;23.808;2023-06-22T15:20:31;95063.19;;;25.22;61.32
62978;BME280;49073;42.352;23.808;2023-06-22T15:23:32;95064.84;;;25.06;61.43
62978;BME280;49073;42.352;23.808;2023-06-22T15:26:33;95058.53;;;25.09;62.05
62978;BME280;49073;42.352;23.808;2023-06-22T15:29:34;95051.53;;;25.08;60.93
62978;BME280;49073;42.352;23.808;2023-06-22T15:32:35;95054.09;;;24.90;60.95
62978;BME280;49073;42.352;23.808;2023-06-22T15:35:36;95052.56;;;24.89;61.47
62978;BME280;49073;42.352;23.808;2023-06-22T15:38:37;95042.09;;;24.87;60.84
62978;BME280;49073;42.352;23.808;2023-06-22T15:41:40;95050.16;;;24.91;61.54
62978;BME280;49073;42.352;23.808;2023-06-22T15:44:44;95043.38;;;24.69;62.19
62978;BME280;49073;42.352;23.808;2023-06-22T15:47:44;95048.72;;;24.73;62.46
62978;BME280;49073;42.352;23.808;2023-06-22T15:50:45;95047.41;;;24.65;62.72
62978;BME280;49073;42.352;23.808;2023-06-22T15:53:46;95040.38;;;24.80;63.42